createdAt,value
2023-01-20T00:00:12.937Z,8.18
2023-01-20T00:02:40.483Z,12.40
2023-01-20T00:05:07.904Z,10.77
2023-01-20T00:07:35.980Z,9.02
2023-01-20T00:10:03.237Z,8.20
2023-01-20T00:12:31.911Z,8.88
2023-01-20T00:14:59.306Z,9.52
2023-01-20T00:17:26.650Z,5.07
2023-01-20T00:19:53.896Z,7.53
2023-01-20T00:22:22.312Z,7.65
2023-01-20T00:24:49.544Z,9.07
2023-01-20T00:27:19.614Z,5.57
2023-01-20T00:32:14.831Z,12.38
2023-01-20T00:34:41.956Z,5.03
2023-01-20T00:37:09.123Z,12.52
2023-01-20T00:39:36.274Z,10.32
2023-01-20T00:42:03.466Z,13.82
2023-01-20T00:44:30.651Z,16.27
2023-01-20T00:46:57.826Z,16.75
2023-01-20T00:49:25.098Z,12.25
2023-01-20T00:51:52.292Z,17.42
2023-01-20T00:54:19.554Z,14.07
2023-01-20T00:56:46.759Z,16.05
2023-01-20T00:59:13.932Z,15.68
2023-01-20T01:01:41.122Z,12.63
2023-01-20T01:04:08.476Z,15.30
2023-01-20T01:06:35.713Z,15.23
2023-01-20T01:09:02.879Z,19.48
2023-01-20T01:11:30.399Z,15.88
2023-01-20T01:13:57.917Z,18.05
2023-01-20T01:16:25.138Z,17.50
2023-01-20T01:18:54.690Z,16.80
2023-01-20T01:21:22.153Z,21.58
2023-01-20T01:23:49.485Z,16.15
2023-01-20T01:26:16.635Z,17.13
2023-01-20T01:28:44.088Z,19.67
2023-01-20T01:31:11.659Z,17.17
2023-01-20T01:33:39.099Z,17.67
2023-01-20T01:36:08.556Z,19.15
2023-01-20T01:38:36.150Z,17.58
2023-01-20T01:41:03.337Z,12.65
2023-01-20T01:43:32.069Z,14.85
2023-01-20T01:46:00.028Z,25.25
2023-01-20T01:48:47.460Z,25.63
2023-01-20T01:51:20.349Z,19.77
2023-01-20T01:53:53.697Z,26.08
2023-01-20T01:56:22.444Z,20.23
2023-01-20T01:58:51.783Z,23.23
2023-01-20T02:01:19.256Z,23.35
2023-01-20T02:03:58.762Z,23.45
2023-01-20T02:06:27.697Z,27.45
2023-01-20T02:08:55.049Z,27.23
2023-01-20T02:11:22.368Z,23.35
2023-01-20T02:13:49.600Z,27.02
2023-01-20T02:16:40.066Z,22.20
2023-01-20T02:19:13.252Z,27.33
2023-01-20T02:22:03.650Z,26.83
2023-01-20T02:24:49.648Z,15.75
2023-01-20T02:27:29.094Z,28.83
2023-01-20T02:29:56.237Z,26.40
2023-01-20T02:32:38.632Z,10.60
2023-01-20T02:35:32.376Z,30.33
2023-01-20T02:38:07.035Z,28.10
2023-01-20T02:40:34.185Z,31.52
2023-01-20T02:43:08.244Z,25.88
2023-01-20T02:45:41.461Z,32.08
2023-01-20T02:48:28.866Z,26.33
2023-01-20T02:50:56.042Z,35.47
2023-01-20T02:53:25.240Z,25.70
2023-01-20T02:55:54.341Z,27.33
2023-01-20T02:58:26.719Z,35.47
2023-01-20T03:00:55.763Z,27.50
2023-01-20T03:03:25.844Z,34.63
2023-01-20T03:05:57.192Z,35.85
2023-01-20T03:08:27.158Z,45.25
2023-01-20T03:10:55.328Z,31.90
2023-01-20T03:13:25.331Z,41.72
2023-01-20T03:15:52.465Z,37.78
2023-01-20T03:18:19.676Z,38.00
2023-01-20T03:20:46.835Z,30.00
2023-01-20T03:23:14.022Z,40.35
2023-01-20T03:25:41.793Z,39.50
2023-01-20T03:28:09.026Z,39.50
2023-01-20T03:30:36.346Z,44.50
2023-01-20T03:33:04.163Z,48.83
2023-01-20T03:35:31.828Z,32.50
2023-01-20T03:37:58.999Z,42.90
2023-01-20T03:40:28.845Z,27.88
2023-01-20T03:43:16.621Z,54.15
2023-01-20T03:46:00.784Z,45.25
2023-01-20T03:48:31.025Z,39.78
2023-01-20T03:51:09.458Z,23.58
2023-01-20T03:53:45.588Z,44.05
2023-01-20T03:56:12.872Z,40.60
2023-01-20T03:58:41.204Z,53.65
2023-01-20T04:01:18.099Z,30.17
2023-01-20T04:03:47.143Z,26.08
2023-01-20T04:06:15.997Z,22.35
2023-01-20T04:08:57.009Z,39.92
2023-01-20T04:11:24.498Z,36.78
2023-01-20T04:13:51.960Z,53.13
2023-01-20T04:16:20.424Z,20.85
2023-01-20T04:18:49.277Z,45.97
2023-01-20T04:21:24.416Z,27.63
2023-01-20T04:24:01.564Z,52.13
2023-01-20T04:26:29.152Z,35.95
2023-01-20T04:28:56.417Z,28.55
2023-01-20T04:31:30.588Z,42.63
2023-01-20T04:33:58.458Z,29.98
2023-01-20T04:36:25.604Z,33.50
2023-01-20T04:38:52.736Z,31.63
2023-01-20T04:41:19.932Z,37.72
2023-01-20T04:43:47.460Z,60.55
2023-01-20T04:46:15.414Z,45.30
2023-01-20T04:48:42.659Z,39.80
2023-01-20T04:51:09.839Z,75.30
2023-01-20T04:53:37.119Z,44.50
2023-01-20T04:56:04.333Z,50.53
2023-01-20T04:58:31.464Z,41.83
2023-01-20T05:01:01.835Z,37.08
2023-01-20T05:03:29.104Z,46.63
2023-01-20T05:05:56.310Z,54.97
2023-01-20T05:08:23.576Z,31.20
2023-01-20T05:10:50.773Z,30.13
2023-01-20T05:13:17.947Z,41.38
2023-01-20T05:15:45.312Z,40.13
2023-01-20T05:18:12.540Z,38.63
2023-01-20T05:20:39.681Z,50.97
2023-01-20T05:23:07.069Z,41.40
2023-01-20T05:25:34.286Z,57.22
2023-01-20T05:28:01.496Z,57.83
2023-01-20T05:30:28.792Z,45.97
2023-01-20T05:32:56.118Z,51.92
2023-01-20T05:35:23.409Z,57.80
2023-01-20T05:37:54.398Z,69.75
2023-01-20T05:40:22.173Z,44.08
2023-01-20T05:42:49.365Z,40.30
2023-01-20T05:45:17.037Z,76.28
2023-01-20T05:47:44.524Z,29.05
2023-01-20T05:50:12.327Z,68.10
2023-01-20T05:52:39.515Z,65.53
2023-01-20T05:55:06.911Z,57.15
2023-01-20T05:57:34.202Z,44.20
2023-01-20T06:00:02.171Z,61.58
2023-01-20T06:02:32.790Z,50.13
2023-01-20T06:05:02.805Z,61.17
2023-01-20T06:07:30.308Z,39.63
2023-01-20T06:09:58.015Z,72.82
2023-01-20T06:12:25.174Z,68.85
2023-01-20T06:14:52.377Z,70.63
2023-01-20T06:17:19.701Z,91.35
2023-01-20T06:19:46.936Z,50.65
2023-01-20T06:22:15.795Z,68.85
2023-01-20T06:24:43.013Z,58.53
2023-01-20T06:27:12.818Z,42.08
2023-01-20T06:29:40.725Z,67.15
2023-01-20T06:32:07.851Z,75.20
2023-01-20T06:34:35.119Z,36.55
2023-01-20T06:37:02.313Z,54.13
2023-01-20T06:39:29.467Z,43.67
2023-01-20T06:42:00.420Z,81.32
2023-01-20T06:44:27.980Z,57.70
2023-01-20T06:46:57.396Z,49.35
2023-01-20T06:49:24.638Z,30.23
2023-01-20T06:51:51.948Z,52.65
2023-01-20T06:54:19.206Z,46.47
2023-01-20T06:56:46.684Z,47.35
2023-01-20T06:59:14.031Z,51.65
2023-01-20T07:01:41.483Z,23.85
2023-01-20T07:04:08.722Z,55.42
2023-01-20T07:06:38.474Z,43.88
2023-01-20T07:09:06.615Z,61.33
2023-01-20T07:11:35.854Z,37.08
2023-01-20T07:14:03.627Z,77.72
2023-01-20T07:16:31.024Z,36.92
2023-01-20T07:18:58.294Z,46.72
2023-01-20T07:21:26.610Z,83.13
2023-01-20T07:23:54.529Z,68.88
2023-01-20T07:26:24.366Z,55.25
2023-01-20T07:28:52.215Z,74.20
2023-01-20T07:31:20.758Z,58.10
2023-01-20T07:33:48.204Z,44.15
2023-01-20T07:36:16.118Z,52.97
2023-01-20T07:38:43.687Z,30.88
2023-01-20T07:41:16.019Z,74.30
2023-01-20T07:43:43.764Z,48.15
2023-01-20T07:46:11.469Z,53.40
2023-01-20T07:48:38.739Z,33.67
2023-01-20T07:51:07.339Z,63.72
2023-01-20T07:53:48.606Z,51.60
2023-01-20T07:56:19.272Z,41.97
2023-01-20T07:58:47.681Z,56.22
2023-01-20T08:01:19.822Z,54.35
2023-01-20T08:03:47.374Z,43.63
2023-01-20T08:06:15.469Z,88.72
2023-01-20T08:08:42.746Z,69.07
2023-01-20T08:11:11.264Z,42.65
2023-01-20T08:13:38.474Z,54.17
2023-01-20T08:16:06.963Z,65.90
2023-01-20T08:18:35.201Z,44.10
2023-01-20T08:21:06.395Z,32.53
2023-01-20T08:23:34.255Z,57.38
2023-01-20T08:26:02.939Z,44.58
2023-01-20T08:28:31.123Z,42.22
2023-01-20T08:31:09.989Z,28.75
2023-01-20T08:33:37.804Z,70.32
2023-01-20T08:36:06.308Z,59.50
2023-01-20T08:38:33.460Z,67.95
2023-01-20T08:41:00.606Z,58.85
2023-01-20T08:43:27.924Z,34.45
2023-01-20T08:46:03.474Z,47.42
2023-01-20T08:48:30.644Z,71.93
2023-01-20T08:50:58.428Z,38.65
2023-01-20T08:53:26.231Z,63.75
2023-01-20T08:55:59.781Z,46.17
2023-01-20T08:58:27.553Z,56.78
2023-01-20T09:00:54.904Z,49.13
2023-01-20T09:03:22.517Z,55.25
2023-01-20T09:05:49.734Z,43.70
2023-01-20T09:08:17.820Z,48.42
2023-01-20T09:10:45.570Z,33.15
2023-01-20T09:13:13.076Z,58.22
2023-01-20T09:15:40.255Z,56.28
2023-01-20T09:18:07.543Z,42.40
2023-01-20T09:20:35.136Z,44.45
2023-01-20T09:23:03.174Z,52.22
2023-01-20T09:25:30.365Z,45.40
2023-01-20T09:28:00.646Z,30.95
2023-01-20T09:30:28.198Z,43.97
2023-01-20T09:32:57.898Z,50.63
2023-01-20T09:35:25.092Z,39.70
2023-01-20T09:38:11.062Z,41.53
2023-01-20T09:41:00.458Z,34.83
2023-01-20T09:43:59.989Z,38.55
2023-01-20T09:46:36.361Z,34.92
2023-01-20T09:49:35.256Z,34.25
2023-01-20T09:52:40.502Z,35.88
2023-01-20T09:55:17.651Z,33.17
2023-01-20T09:57:49.279Z,36.13
2023-01-20T10:00:19.404Z,26.67
2023-01-20T10:02:50.313Z,32.40
2023-01-20T10:05:21.898Z,27.95
2023-01-20T10:07:52.117Z,41.85
2023-01-20T10:10:23.449Z,37.22
2023-01-20T10:13:04.093Z,17.10
2023-01-20T10:15:35.049Z,27.23
2023-01-20T10:18:21.008Z,37.10
2023-01-20T10:20:54.648Z,31.55
2023-01-20T10:23:25.675Z,28.33
2023-01-20T10:25:57.678Z,33.65
2023-01-20T10:28:28.759Z,32.55
2023-01-20T10:30:58.161Z,45.08
2023-01-20T10:33:37.935Z,43.67
2023-01-20T10:36:05.554Z,33.35
2023-01-20T10:38:36.992Z,30.30
2023-01-20T10:41:06.818Z,27.02
2023-01-20T10:43:33.966Z,32.15
2023-01-20T10:46:12.424Z,29.52
2023-01-20T10:48:39.675Z,29.48
2023-01-20T10:51:30.197Z,29.95
2023-01-20T10:54:00.409Z,25.25
2023-01-20T10:56:32.700Z,28.90
2023-01-20T10:59:02.648Z,26.02
2023-01-20T11:01:30.263Z,23.58
2023-01-20T11:03:57.578Z,42.58
2023-01-20T11:06:29.526Z,26.77
2023-01-20T11:08:57.443Z,14.73
2023-01-20T11:11:25.816Z,20.52
2023-01-20T11:13:53.467Z,23.50
2023-01-20T11:16:25.467Z,20.15
2023-01-20T11:19:00.150Z,19.15
2023-01-20T11:21:28.788Z,21.50
2023-01-20T11:23:56.744Z,23.20
2023-01-20T11:26:28.697Z,17.88
2023-01-20T11:28:56.062Z,14.05
2023-01-20T11:31:34.246Z,18.90
2023-01-20T11:34:03.129Z,21.45
2023-01-20T11:36:30.512Z,19.33
2023-01-20T11:38:58.411Z,22.60
2023-01-20T11:41:29.633Z,23.02
2023-01-20T11:43:58.606Z,18.90
2023-01-20T11:46:33.329Z,15.00
2023-01-20T11:49:26.908Z,15.80
2023-01-20T11:51:58.172Z,11.75
2023-01-20T11:54:26.983Z,15.52
2023-01-20T11:56:56.479Z,20.02
2023-01-20T11:59:27.025Z,22.73
2023-01-20T12:02:02.100Z,19.25
2023-01-20T12:04:38.666Z,23.27
2023-01-20T12:07:05.748Z,21.65
2023-01-20T12:09:38.670Z,20.63
2023-01-20T12:12:08.296Z,17.70
2023-01-20T12:14:47.120Z,17.63
2023-01-20T12:17:32.918Z,19.63
2023-01-20T12:20:06.252Z,18.65
2023-01-20T12:22:52.323Z,20.33
2023-01-20T12:25:53.957Z,22.38
2023-01-20T12:28:30.189Z,22.20
2023-01-20T12:31:01.568Z,19.52
2023-01-20T12:33:37.568Z,21.75
2023-01-20T12:36:24.988Z,19.98
2023-01-20T12:39:11.046Z,25.50
2023-01-20T12:41:48.040Z,48.72
2023-01-20T12:44:21.424Z,25.83
2023-01-20T12:46:52.068Z,25.52
2023-01-20T12:49:29.505Z,16.98
2023-01-20T12:52:05.917Z,28.45
2023-01-20T12:54:51.913Z,29.88
2023-01-20T12:57:37.748Z,30.05
2023-01-20T13:00:18.002Z,27.88
2023-01-20T13:03:04.805Z,29.08
2023-01-20T13:09:27.273Z,24.73
2023-01-20T13:12:13.577Z,28.42
2023-01-20T13:14:43.772Z,25.17
2023-01-20T13:17:14.601Z,27.17
2023-01-20T13:19:42.356Z,22.38
2023-01-20T13:22:15.443Z,28.33
2023-01-20T13:24:45.257Z,25.33
2023-01-20T13:27:13.939Z,30.35
2023-01-20T13:29:42.966Z,28.67
2023-01-20T13:32:30.102Z,29.58
2023-01-20T13:34:57.489Z,27.00
2023-01-20T13:37:27.731Z,22.83
2023-01-20T13:39:55.519Z,33.08
2023-01-20T13:42:27.673Z,27.95
2023-01-20T13:45:14.004Z,30.25
2023-01-20T13:48:00.414Z,31.75
2023-01-20T13:50:32.129Z,36.17
2023-01-20T13:53:03.844Z,28.88
2023-01-20T13:55:47.066Z,35.45
2023-01-20T14:00:41.845Z,23.52
2023-01-20T14:03:28.301Z,34.53
2023-01-20T14:06:19.621Z,27.92
2023-01-20T14:09:08.518Z,27.77
2023-01-20T14:11:55.330Z,31.15
2023-01-20T14:14:24.544Z,24.70
2023-01-20T14:16:52.804Z,31.85
2023-01-20T14:19:23.545Z,29.45
2023-01-20T14:24:38.414Z,23.30
2023-01-20T14:27:17.899Z,26.77
2023-01-20T14:29:45.567Z,30.27
2023-01-20T14:32:21.982Z,26.35
2023-01-20T14:34:49.728Z,31.63
2023-01-20T14:37:24.309Z,24.27
2023-01-20T14:39:52.632Z,29.23
2023-01-20T14:42:21.020Z,30.27
2023-01-20T14:44:48.922Z,25.38
2023-01-20T14:47:16.486Z,26.85
2023-01-20T14:49:45.148Z,29.15
2023-01-20T14:52:21.680Z,29.23
2023-01-20T14:54:56.105Z,22.80
2023-01-20T14:57:34.608Z,21.40
2023-01-20T15:00:12.019Z,18.42
2023-01-20T15:02:39.921Z,22.23
2023-01-20T15:05:20.672Z,21.90
2023-01-20T15:07:50.594Z,29.15
2023-01-20T15:10:19.220Z,23.63
2023-01-20T15:12:46.488Z,26.50
2023-01-20T15:15:13.626Z,24.92
2023-01-20T15:17:45.800Z,27.58
2023-01-20T15:20:44.779Z,27.23
2023-01-20T15:23:46.423Z,27.38
2023-01-20T15:26:44.810Z,25.02
2023-01-20T15:29:24.577Z,23.45
2023-01-20T15:31:52.353Z,25.23
2023-01-20T15:34:20.368Z,22.63
2023-01-20T15:36:53.884Z,25.95
2023-01-20T15:39:22.461Z,28.52
2023-01-20T15:42:15.118Z,27.83
2023-01-20T15:44:42.339Z,26.00
2023-01-20T15:47:22.178Z,27.90
2023-01-20T15:49:49.564Z,28.35
2023-01-20T15:52:16.955Z,29.02
2023-01-20T15:54:44.327Z,31.33
2023-01-20T15:57:15.613Z,22.58
2023-01-20T15:59:46.438Z,23.58
2023-01-20T16:02:21.715Z,25.33
2023-01-20T16:04:49.352Z,29.10
2023-01-20T16:07:20.620Z,30.95
2023-01-20T16:09:48.518Z,25.35
2023-01-20T16:12:16.774Z,34.15
2023-01-20T16:14:44.332Z,20.13
2023-01-20T16:17:13.677Z,25.48
2023-01-20T16:19:45.523Z,30.23
2023-01-20T16:22:13.957Z,23.13
2023-01-20T16:24:41.604Z,26.98
2023-01-20T16:27:17.319Z,24.70
2023-01-20T16:29:45.001Z,26.38
2023-01-20T16:32:13.801Z,22.45
2023-01-20T16:34:42.951Z,25.98
2023-01-20T16:37:15.392Z,25.33
2023-01-20T16:39:42.937Z,27.67
2023-01-20T16:42:14.703Z,28.90
2023-01-20T16:44:42.293Z,27.77
2023-01-20T16:47:09.551Z,27.05
2023-01-20T16:49:36.928Z,30.02
2023-01-20T16:55:30.672Z,26.30
2023-01-20T16:57:58.125Z,22.02
2023-01-20T17:00:51.223Z,24.90
2023-01-20T17:03:18.384Z,25.83
2023-01-20T17:05:45.591Z,26.02
2023-01-20T17:08:13.057Z,28.02
2023-01-20T17:10:40.595Z,24.60
2023-01-20T17:13:07.782Z,18.75
2023-01-20T17:15:35.152Z,28.33
2023-01-20T17:18:03.571Z,25.17
2023-01-20T17:20:32.380Z,24.55
2023-01-20T17:22:59.717Z,21.88
2023-01-20T17:25:27.090Z,25.35
2023-01-20T17:27:54.715Z,27.52
2023-01-20T17:30:24.535Z,27.10
2023-01-20T17:32:53.289Z,25.13
2023-01-20T17:35:20.821Z,22.45
2023-01-20T17:37:48.149Z,25.10
2023-01-20T17:40:16.280Z,27.25
2023-01-20T17:42:44.214Z,25.83
2023-01-20T17:45:11.652Z,22.27
2023-01-20T17:47:38.758Z,27.75
2023-01-20T17:50:05.975Z,19.60
2023-01-20T17:52:33.170Z,26.88
2023-01-20T17:55:00.457Z,30.30
2023-01-20T17:57:28.287Z,31.25
2023-01-20T17:59:55.452Z,30.73
2023-01-20T18:02:22.801Z,31.23
2023-01-20T18:04:49.962Z,31.55
2023-01-20T18:07:17.307Z,32.75
2023-01-20T18:09:44.513Z,30.92
2023-01-20T18:12:11.747Z,28.95
2023-01-20T18:14:39.000Z,39.20
2023-01-20T18:17:06.381Z,37.80
2023-01-20T18:19:33.576Z,30.17
2023-01-20T18:22:01.891Z,39.45
2023-01-20T18:24:29.064Z,30.20
2023-01-20T18:26:57.893Z,34.53
2023-01-20T18:29:25.498Z,35.30
2023-01-20T18:31:52.772Z,39.67
2023-01-20T18:34:20.812Z,34.35
2023-01-20T18:36:49.327Z,38.45
2023-01-20T18:39:18.431Z,42.67
2023-01-20T18:41:46.065Z,34.92
2023-01-20T18:44:13.645Z,42.90
2023-01-20T18:46:41.227Z,31.25
2023-01-20T18:49:09.871Z,32.50
2023-01-20T18:51:37.755Z,35.50
2023-01-20T18:54:10.454Z,30.77
2023-01-20T18:56:41.022Z,42.10
2023-01-20T18:59:08.531Z,39.15
2023-01-20T19:01:39.532Z,36.80
2023-01-20T19:04:07.776Z,42.13
2023-01-20T19:06:39.671Z,33.92
2023-01-20T19:09:07.515Z,43.17
2023-01-20T19:11:39.722Z,43.95
2023-01-20T19:14:08.359Z,44.10
2023-01-20T19:16:38.939Z,35.20
2023-01-20T19:19:07.348Z,39.17
2023-01-20T19:21:36.318Z,30.58
2023-01-20T19:24:06.000Z,37.70
2023-01-20T19:26:35.915Z,36.00
2023-01-20T19:29:06.246Z,42.22
2023-01-20T19:31:34.621Z,40.05
2023-01-20T19:34:01.992Z,36.55
2023-01-20T19:36:29.609Z,42.20
2023-01-20T19:38:57.296Z,42.55
2023-01-20T19:41:27.545Z,50.70
2023-01-20T19:43:58.504Z,43.65
2023-01-20T19:46:27.071Z,41.47
2023-01-20T19:48:57.383Z,41.97
2023-01-20T19:51:25.103Z,49.90
2023-01-20T19:53:59.670Z,41.67
2023-01-20T19:56:28.179Z,41.65
2023-01-20T19:58:56.149Z,38.33
2023-01-20T20:01:31.113Z,39.75
2023-01-20T20:03:58.668Z,41.70
2023-01-20T20:06:33.461Z,41.60
2023-01-20T20:09:08.319Z,26.05
2023-01-20T20:11:35.877Z,38.30
2023-01-20T20:14:04.230Z,42.95
2023-01-20T20:16:32.918Z,47.17
2023-01-20T20:19:00.400Z,44.90
2023-01-20T20:21:28.049Z,35.85
2023-01-20T20:23:59.267Z,43.67
2023-01-20T20:26:31.029Z,37.38
2023-01-20T20:29:00.495Z,43.33
2023-01-20T20:31:31.171Z,42.80
2023-01-20T20:36:28.334Z,38.25
2023-01-20T20:38:55.882Z,44.67
2023-01-20T20:41:25.824Z,49.22
2023-01-20T20:43:54.020Z,40.47
2023-01-20T20:46:21.558Z,46.55
2023-01-20T20:48:48.729Z,45.58
2023-01-20T20:51:16.922Z,47.58
2023-01-20T20:53:44.708Z,41.92
2023-01-20T20:56:16.091Z,44.83
2023-01-20T20:59:00.121Z,48.88
2023-01-20T21:01:29.151Z,41.35
2023-01-20T21:03:57.780Z,35.70
2023-01-20T21:06:25.622Z,32.95
2023-01-20T21:08:53.745Z,43.40
2023-01-20T21:11:20.970Z,41.80
2023-01-20T21:13:49.405Z,44.45
2023-01-20T21:16:20.133Z,41.15
2023-01-20T21:18:47.367Z,41.70
2023-01-20T21:21:16.979Z,43.40
2023-01-20T21:23:48.205Z,38.58
2023-01-20T21:26:15.535Z,47.65
2023-01-20T21:28:43.071Z,46.35
2023-01-20T21:31:11.619Z,42.70
2023-01-20T21:33:41.067Z,37.85
2023-01-20T21:36:09.137Z,50.97
2023-01-20T21:38:38.943Z,40.30
2023-01-20T21:41:08.087Z,47.50
2023-01-20T21:43:55.899Z,44.25
2023-01-20T21:46:23.448Z,46.33
2023-01-20T21:49:09.510Z,36.78
2023-01-20T21:51:55.542Z,48.15
2023-01-20T21:54:23.064Z,45.20
2023-01-20T21:56:51.984Z,47.05
2023-01-20T21:59:19.311Z,44.85
2023-01-20T22:01:46.790Z,49.08
2023-01-20T22:04:14.112Z,47.47
2023-01-20T22:06:42.639Z,47.53
2023-01-20T22:09:10.134Z,47.95
2023-01-20T22:11:37.390Z,51.05
2023-01-20T22:14:04.703Z,53.35
2023-01-20T22:16:33.235Z,51.45
2023-01-20T22:19:00.467Z,47.78
2023-01-20T22:21:28.034Z,52.75
2023-01-20T22:23:55.222Z,49.42
2023-01-20T22:26:22.567Z,49.80
2023-01-20T22:28:49.986Z,50.10
2023-01-20T22:31:21.657Z,41.25
2023-01-20T22:33:53.034Z,49.80
2023-01-20T22:36:21.019Z,47.58
2023-01-20T22:38:49.698Z,52.83
2023-01-20T22:41:17.332Z,46.50
2023-01-20T22:43:44.571Z,48.38
2023-01-20T22:46:13.823Z,43.38
2023-01-20T22:48:41.311Z,49.65
2023-01-20T22:51:09.922Z,39.17
2023-01-20T22:53:37.553Z,38.53
2023-01-20T22:56:05.847Z,49.72
2023-01-20T22:58:33.471Z,44.50
2023-01-20T23:01:01.165Z,46.35
2023-01-20T23:03:28.787Z,45.13
2023-01-20T23:06:00.520Z,53.70
2023-01-20T23:08:29.065Z,47.78
2023-01-20T23:10:57.203Z,55.80
2023-01-20T23:13:24.596Z,53.95
2023-01-20T23:15:51.910Z,40.72
2023-01-20T23:18:19.812Z,46.00
2023-01-20T23:20:50.709Z,44.08
2023-01-20T23:23:18.757Z,50.47
2023-01-20T23:25:45.927Z,46.13
2023-01-20T23:28:13.535Z,44.10
2023-01-20T23:30:40.708Z,44.80
2023-01-20T23:33:08.479Z,50.28
2023-01-20T23:35:38.844Z,46.72
2023-01-20T23:38:09.185Z,35.45
2023-01-20T23:40:36.480Z,45.63
2023-01-20T23:43:03.822Z,48.58
2023-01-20T23:45:31.048Z,46.03
2023-01-20T23:47:58.310Z,44.25
2023-01-20T23:50:25.443Z,42.53
2023-01-20T23:52:52.774Z,44.47
2023-01-20T23:55:19.960Z,47.60
2023-01-20T23:57:47.271Z,42.33
